Terminal Aerodrome Forecast
Issued by NWS

Home | Current Version | Previous Version | Text Only | Print | Product List | Glossary On
Versions: 1 2 3 4 5 6 7 8 9 10 11 12 13 14 15 16 17 18
000
FTUS45 KTFX 231126
TAFCTB
TAF
KCTB 231126Z 2312/2412 02013KT 6SM -SHSN BR OVC006
      TEMPO 2312/2316 SCT006 OVC035
     FM231900 03007KT 6SM BR VCSH SCT015 OVC025
     FM240000 VRB05KT 6SM -SN VCFG SCT005 BKN050=

USA.gov is the U.S. government's official web portal to all federal, state and local government web resources and services.